createdAt,value
2018-11-28T00:01:30.232Z,99058.70
2018-11-28T00:03:42.425Z,99062.45
2018-11-28T00:05:54.617Z,99075.06
2018-11-28T00:08:06.804Z,99078.87
2018-11-28T00:10:19.033Z,99068.54
2018-11-28T00:12:31.254Z,99068.14
2018-11-28T00:14:43.449Z,99071.05
2018-11-28T00:16:55.808Z,99063.16
2018-11-28T00:19:08.009Z,99054.73
2018-11-28T00:21:20.186Z,99060.09
2018-11-28T00:23:32.368Z,99059.81
2018-11-28T00:25:44.545Z,99051.20
2018-11-28T00:27:56.810Z,99052.38
2018-11-28T00:30:11.253Z,99051.43
2018-11-28T00:32:23.434Z,99052.38
2018-11-28T00:34:35.597Z,99047.84
2018-11-28T00:36:47.749Z,99059.56
2018-11-28T00:38:59.960Z,99053.59
2018-11-28T00:41:12.132Z,99052.70
2018-11-28T00:43:24.337Z,99052.25
2018-11-28T00:45:36.589Z,99045.34
2018-11-28T00:47:48.880Z,99054.39
2018-11-28T00:50:01.065Z,99052.36
2018-11-28T00:52:13.257Z,99054.14
2018-11-28T00:54:25.495Z,99053.73
2018-11-28T00:56:37.653Z,99059.73
2018-11-28T00:58:49.832Z,99059.12
2018-11-28T01:01:02.064Z,99055.67
2018-11-28T01:03:14.221Z,99062.14
2018-11-28T01:05:26.471Z,99055.02
2018-11-28T01:07:38.919Z,99062.30
2018-11-28T01:09:51.147Z,99059.73
2018-11-28T01:12:03.437Z,99065.70
2018-11-28T01:14:15.622Z,99070.49
2018-11-28T01:16:27.808Z,99066.69
2018-11-28T01:18:40.058Z,99058.59
2018-11-28T01:20:52.336Z,99061.45
2018-11-28T01:23:04.583Z,99063.59
2018-11-28T01:25:17.834Z,99061.06
2018-11-28T01:27:30.022Z,99063.23
2018-11-28T01:29:42.189Z,99062.49
2018-11-28T01:31:54.378Z,99065.91
2018-11-28T01:34:06.572Z,99060.81
2018-11-28T01:36:18.954Z,99068.97
2018-11-28T01:38:31.145Z,99065.06
2018-11-28T01:40:43.484Z,99070.59
2018-11-28T01:42:55.652Z,99060.38
2018-11-28T01:45:09.169Z,99058.65
2018-11-28T01:47:21.381Z,99064.63
2018-11-28T01:49:33.560Z,99065.06
2018-11-28T01:51:45.781Z,99060.37
2018-11-28T01:53:57.985Z,99053.61
2018-11-28T01:56:10.173Z,99055.38
2018-11-28T01:58:22.405Z,99056.28
2018-11-28T02:00:34.608Z,99054.59
2018-11-28T02:02:47.852Z,99051.28
2018-11-28T02:05:00.036Z,99044.06
2018-11-28T02:07:12.239Z,99049.70
2018-11-28T02:09:24.427Z,99050.55
2018-11-28T02:11:36.673Z,99046.74
2018-11-28T02:13:48.852Z,99048.95
2018-11-28T02:16:01.143Z,99053.69
2018-11-28T02:18:13.316Z,99047.77
2018-11-28T02:20:25.477Z,99052.95
2018-11-28T02:22:37.650Z,99050.86
2018-11-28T02:24:49.849Z,99050.47
2018-11-28T02:27:02.045Z,99046.31
2018-11-28T02:29:14.248Z,99050.73
2018-11-28T02:31:26.451Z,99052.59
2018-11-28T02:33:38.642Z,99052.72
2018-11-28T02:35:50.805Z,99054.09
2018-11-28T02:38:03.023Z,99056.65
2018-11-28T02:40:16.844Z,99060.05
2018-11-28T02:42:29.031Z,99061.86
2018-11-28T02:44:41.240Z,99058.10
2018-11-28T02:46:53.428Z,99059.97
2018-11-28T02:49:05.630Z,99062.69
2018-11-28T02:51:17.845Z,99063.28
2018-11-28T02:53:30.063Z,99062.84
2018-11-28T02:55:42.230Z,99062.84
2018-11-28T02:57:54.426Z,99056.50
2018-11-28T03:00:12.540Z,99048.84
2018-11-28T03:02:24.740Z,99056.91
2018-11-28T03:04:36.928Z,99056.10
2018-11-28T03:06:49.208Z,99054.86
2018-11-28T03:09:01.456Z,99057.48
2018-11-28T03:11:13.657Z,99056.20
2018-11-28T03:13:25.845Z,99057.45
2018-11-28T03:15:38.141Z,99054.92
2018-11-28T03:17:50.351Z,99057.48
2018-11-28T03:20:02.626Z,99057.05
2018-11-28T03:22:14.808Z,99060.45
2018-11-28T03:24:27.029Z,99059.58
2018-11-28T03:26:39.250Z,99061.30
2018-11-28T03:28:57.491Z,99055.29
2018-11-28T03:31:09.710Z,99061.16
2018-11-28T03:33:21.906Z,99064.96
2018-11-28T03:35:34.165Z,99062.00
2018-11-28T03:37:46.354Z,99060.31
2018-11-28T03:39:58.526Z,99059.50
2018-11-28T03:42:10.756Z,99061.63
2018-11-28T03:44:22.932Z,99064.27
2018-11-28T03:46:35.172Z,99062.95
2018-11-28T03:48:47.350Z,99065.03
2018-11-28T03:51:00.722Z,99061.19
2018-11-28T03:53:11.768Z,99066.28
2018-11-28T03:55:23.944Z,99064.48
2018-11-28T03:57:36.146Z,99065.70
2018-11-28T03:59:48.317Z,99064.41
2018-11-28T04:02:00.517Z,99064.45
2018-11-28T04:04:12.732Z,99065.26
2018-11-28T04:06:24.921Z,99062.66
2018-11-28T04:08:37.137Z,99066.54
2018-11-28T04:10:49.306Z,99067.34
2018-11-28T04:13:01.537Z,99062.62
2018-11-28T04:15:17.669Z,99071.63
2018-11-28T04:17:29.846Z,99066.50
2018-11-28T04:19:42.032Z,99064.73
2018-11-28T04:21:54.265Z,99058.33
2018-11-28T04:24:06.454Z,99062.54
2018-11-28T04:26:18.617Z,99060.73
2018-11-28T04:28:30.832Z,99063.30
2018-11-28T04:30:43.060Z,99063.34
2018-11-28T04:32:55.514Z,99062.06
2018-11-28T04:35:09.288Z,99062.02
2018-11-28T04:37:21.461Z,99061.95
2018-11-28T04:39:33.649Z,99064.91
2018-11-28T04:41:45.821Z,99064.91
2018-11-28T04:43:57.999Z,99066.16
2018-11-28T04:46:10.203Z,99064.78
2018-11-28T04:48:22.452Z,99068.27
2018-11-28T04:50:34.636Z,99072.56
2018-11-28T04:52:46.823Z,99068.75
2018-11-28T04:54:59.020Z,99072.56
2018-11-28T04:57:11.274Z,99067.44
2018-11-28T04:59:23.458Z,99065.70
2018-11-28T05:01:35.692Z,99053.48
2018-11-28T05:03:47.880Z,99056.28
2018-11-28T05:06:00.089Z,99058.08
2018-11-28T05:08:12.318Z,99058.55
2018-11-28T05:10:26.590Z,99056.39
2018-11-28T05:12:38.813Z,99057.23
2018-11-28T05:14:51.213Z,99065.77
2018-11-28T05:17:03.503Z,99058.52
2018-11-28T05:19:15.652Z,99055.63
2018-11-28T05:21:27.877Z,99055.73
2018-11-28T05:23:40.075Z,99060.45
2018-11-28T05:25:52.425Z,99058.80
2018-11-28T05:28:04.675Z,99060.05
2018-11-28T05:30:18.761Z,99054.92
2018-11-28T05:32:30.943Z,99057.55
2018-11-28T05:34:43.168Z,99054.25
2018-11-28T05:36:55.385Z,99053.03
2018-11-28T05:39:07.593Z,99055.23
2018-11-28T05:41:19.780Z,99060.79
2018-11-28T05:43:31.995Z,99068.12
2018-11-28T05:45:44.177Z,99069.41
2018-11-28T05:47:56.371Z,99073.28
2018-11-28T05:50:10.597Z,99063.94
2018-11-28T05:52:22.797Z,99068.59
2018-11-28T05:54:34.963Z,99066.79
2018-11-28T05:56:47.149Z,99070.63
2018-11-28T05:58:59.358Z,99072.78
2018-11-28T06:01:11.709Z,99077.88
2018-11-28T06:03:23.876Z,99086.34
2018-11-28T06:05:36.133Z,99091.00
2018-11-28T06:07:48.365Z,99088.91
2018-11-28T06:10:00.576Z,99090.62
2018-11-28T06:12:12.824Z,99095.25
2018-11-28T06:14:25.013Z,99103.34
2018-11-28T06:16:37.430Z,99105.03
2018-11-28T06:18:49.641Z,99106.69
2018-11-28T06:21:01.828Z,99111.38
2018-11-28T06:23:14.006Z,99116.03
2018-11-28T06:25:26.194Z,99114.34
2018-11-28T06:27:38.367Z,99116.06
2018-11-28T06:29:50.548Z,99118.19
2018-11-28T06:32:02.732Z,99110.50
2018-11-28T06:34:14.919Z,99105.41
2018-11-28T06:36:27.097Z,99104.97
2018-11-28T06:38:39.301Z,99098.16
2018-11-28T06:40:51.478Z,99098.53
2018-11-28T06:43:03.968Z,99102.81
2018-11-28T06:45:17.406Z,99110.91
2018-11-28T06:47:29.585Z,99105.30
2018-11-28T06:49:41.793Z,99108.20
2018-11-28T06:51:53.980Z,99108.65
2018-11-28T06:54:06.167Z,99107.37
2018-11-28T06:56:18.368Z,99112.16
2018-11-28T06:58:30.583Z,99109.22
2018-11-28T07:00:42.811Z,99110.88
2018-11-28T07:02:55.095Z,99117.28
2018-11-28T07:05:07.526Z,99115.53
2018-11-28T07:07:19.726Z,99123.15
2018-11-28T07:09:32.007Z,99126.09
2018-11-28T07:11:44.243Z,99132.09
2018-11-28T07:13:56.520Z,99137.99
2018-11-28T07:16:08.737Z,99140.12
2018-11-28T07:18:32.238Z,99143.02
2018-11-28T07:20:44.481Z,99148.48
2018-11-28T07:22:56.660Z,99149.30
2018-11-28T07:25:11.069Z,99152.27
2018-11-28T07:27:23.324Z,99145.48
2018-11-28T07:29:35.468Z,99152.30
2018-11-28T07:31:47.711Z,99153.95
2018-11-28T07:33:59.925Z,99162.11
2018-11-28T07:36:12.149Z,99154.02
2018-11-28T07:38:24.332Z,99153.20
2018-11-28T07:40:38.037Z,99146.73
2018-11-28T07:43:22.221Z,99145.98
2018-11-28T07:45:34.378Z,99144.67
2018-11-28T07:47:46.607Z,99147.23
2018-11-28T07:49:58.809Z,99156.66
2018-11-28T07:52:11.168Z,99157.87
2018-11-28T07:54:23.382Z,99159.95
2018-11-28T07:56:35.565Z,99159.05
2018-11-28T07:58:47.725Z,99155.94
2018-11-28T08:00:59.908Z,99160.98
2018-11-28T08:03:12.371Z,99167.33
2018-11-28T08:05:24.312Z,99169.45
2018-11-28T08:07:36.560Z,99173.55
2018-11-28T08:09:48.740Z,99167.22
2018-11-28T08:12:00.994Z,99177.70
2018-11-28T08:14:13.230Z,99175.89
2018-11-28T08:16:25.404Z,99177.58
2018-11-28T08:18:37.623Z,99174.48
2018-11-28T08:20:49.806Z,99166.70
2018-11-28T08:23:02.008Z,99171.35
2018-11-28T08:25:15.256Z,99171.27
2018-11-28T08:27:27.457Z,99168.27
2018-11-28T08:29:39.632Z,99174.96
2018-11-28T08:31:51.826Z,99180.97
2018-11-28T08:34:04.128Z,99180.66
2018-11-28T08:36:16.286Z,99181.50
2018-11-28T08:38:28.489Z,99172.88
2018-11-28T08:40:40.694Z,99172.42
2018-11-28T08:42:53.892Z,99176.28
2018-11-28T08:45:08.479Z,99173.58
2018-11-28T08:47:20.673Z,99180.72
2018-11-28T08:49:32.861Z,99181.81
2018-11-28T08:51:45.030Z,99186.02
2018-11-28T08:53:57.277Z,99190.53
2018-11-28T08:56:09.464Z,99192.47
2018-11-28T08:58:21.725Z,99197.56
2018-11-28T09:00:34.029Z,99203.00
2018-11-28T09:02:47.301Z,99209.67
2018-11-28T09:04:59.544Z,99210.36
2018-11-28T09:07:11.825Z,99207.25
2018-11-28T09:09:24.074Z,99203.74
2018-11-28T09:11:36.253Z,99209.17
2018-11-28T09:13:48.475Z,99211.19
2018-11-28T09:16:00.626Z,99206.27
2018-11-28T09:18:12.821Z,99205.67
2018-11-28T09:20:25.057Z,99205.60
2018-11-28T09:22:37.314Z,99211.59
2018-11-28T09:24:49.534Z,99221.27
2018-11-28T09:27:01.711Z,99213.62
2018-11-28T09:29:13.968Z,99216.12
2018-11-28T09:31:26.225Z,99219.92
2018-11-28T09:33:38.401Z,99214.62
2018-11-28T09:35:50.691Z,99205.44
2018-11-28T09:38:02.861Z,99207.94
2018-11-28T09:40:24.833Z,99205.42
2018-11-28T09:42:37.486Z,99210.68
2018-11-28T09:44:49.720Z,99204.15
2018-11-28T09:47:01.926Z,99208.96
2018-11-28T09:49:14.197Z,99208.52
2018-11-28T09:51:26.419Z,99210.74
2018-11-28T09:53:38.654Z,99209.28
2018-11-28T09:55:50.861Z,99215.72
2018-11-28T09:58:03.070Z,99208.39
2018-11-28T10:00:19.204Z,99209.11
2018-11-28T10:02:31.445Z,99200.31
2018-11-28T10:04:43.642Z,99195.86
2018-11-28T10:06:55.924Z,99194.82
2018-11-28T10:09:08.449Z,99197.34
2018-11-28T10:11:20.680Z,99200.59
2018-11-28T10:13:32.844Z,99194.64
2018-11-28T10:15:45.049Z,99199.61
2018-11-28T10:17:57.391Z,99189.69
2018-11-28T10:20:10.883Z,99192.61
2018-11-28T10:22:23.178Z,99191.48
2018-11-28T10:24:35.348Z,99197.27
2018-11-28T10:26:47.551Z,99196.11
2018-11-28T10:28:59.720Z,99193.91
2018-11-28T10:31:11.908Z,99183.02
2018-11-28T10:33:24.152Z,99178.77
2018-11-28T10:35:37.001Z,99179.48
2018-11-28T10:37:49.258Z,99182.38
2018-11-28T10:40:01.484Z,99180.31
2018-11-28T10:42:13.700Z,99176.83
2018-11-28T10:44:25.898Z,99177.47
2018-11-28T10:46:38.102Z,99180.15
2018-11-28T10:48:50.356Z,99178.86
2018-11-28T10:51:02.577Z,99174.78
2018-11-28T10:53:14.850Z,99168.73
2018-11-28T10:55:27.039Z,99167.76
2018-11-28T10:57:39.335Z,99169.50
2018-11-28T10:59:51.491Z,99162.28
2018-11-28T11:03:07.213Z,99169.50
2018-11-28T11:05:25.082Z,99166.38
2018-11-28T11:07:43.016Z,99163.66
2018-11-28T11:10:00.968Z,99160.10
2018-11-28T11:12:18.779Z,99165.84
2018-11-28T11:14:36.658Z,99160.39
2018-11-28T11:16:48.869Z,99150.00
2018-11-28T11:19:01.085Z,99155.23
2018-11-28T11:21:13.329Z,99159.50
2018-11-28T11:23:25.558Z,99149.53
2018-11-28T11:25:37.785Z,99152.21
2018-11-28T11:27:49.961Z,99155.53
2018-11-28T11:30:02.197Z,99157.27
2018-11-28T11:32:14.513Z,99149.61
2018-11-28T11:34:26.706Z,99148.84
2018-11-28T11:36:38.862Z,99153.11
2018-11-28T11:38:51.069Z,99148.84
2018-11-28T11:41:03.324Z,99150.16
2018-11-28T11:43:15.518Z,99151.37
2018-11-28T11:45:27.763Z,99151.42
2018-11-28T11:47:40.035Z,99153.48
2018-11-28T11:49:52.289Z,99150.47
2018-11-28T11:52:04.524Z,99155.97
2018-11-28T11:54:16.705Z,99151.58
2018-11-28T11:56:28.912Z,99151.88
2018-11-28T11:58:41.136Z,99142.31
2018-11-28T12:00:53.459Z,99149.53
2018-11-28T12:03:11.569Z,99142.84
2018-11-28T12:05:23.776Z,99141.44
2018-11-28T12:07:36.054Z,99137.84
2018-11-28T12:09:48.228Z,99133.63
2018-11-28T12:12:00.444Z,99129.97
2018-11-28T12:14:13.621Z,99132.78
2018-11-28T12:16:25.813Z,99129.97
2018-11-28T12:18:38.005Z,99128.45
2018-11-28T12:20:52.004Z,99123.55
2018-11-28T12:23:04.387Z,99124.42
2018-11-28T12:25:16.622Z,99129.22
2018-11-28T12:27:28.815Z,99128.60
2018-11-28T12:29:41.025Z,99128.60
2018-11-28T12:31:53.221Z,99131.48
2018-11-28T12:34:05.809Z,99136.20
2018-11-28T12:36:18.073Z,99126.35
2018-11-28T12:38:30.254Z,99129.75
2018-11-28T12:40:42.438Z,99120.33
2018-11-28T12:42:54.701Z,99127.03
2018-11-28T12:45:15.782Z,99125.03
2018-11-28T12:47:28.033Z,99130.90
2018-11-28T12:49:40.268Z,99124.36
2018-11-28T12:51:52.452Z,99127.53
2018-11-28T12:54:04.927Z,99132.33
2018-11-28T12:56:17.101Z,99129.02
2018-11-28T12:58:29.306Z,99128.39
2018-11-28T13:00:41.534Z,99132.04
2018-11-28T13:02:53.750Z,99133.64
2018-11-28T13:05:08.330Z,99133.25
2018-11-28T13:07:20.573Z,99129.05
2018-11-28T13:09:32.782Z,99131.02
2018-11-28T13:11:45.018Z,99121.21
2018-11-28T13:13:57.270Z,99126.89
2018-11-28T13:16:09.524Z,99120.16
2018-11-28T13:18:21.717Z,99116.31
2018-11-28T13:20:33.917Z,99119.70
2018-11-28T13:22:47.060Z,99117.50
2018-11-28T13:24:59.357Z,99110.07
2018-11-28T13:27:11.575Z,99105.70
2018-11-28T13:29:23.797Z,99112.61
2018-11-28T13:31:35.998Z,99108.38
2018-11-28T13:33:48.235Z,99119.11
2018-11-28T13:36:00.459Z,99123.49
2018-11-28T13:38:12.929Z,99123.06
2018-11-28T13:40:25.117Z,99123.42
2018-11-28T13:42:37.365Z,99117.31
2018-11-28T13:44:49.611Z,99120.94
2018-11-28T13:47:01.795Z,99111.77
2018-11-28T13:49:14.082Z,99116.80
2018-11-28T13:51:26.264Z,99111.82
2018-11-28T13:53:38.487Z,99116.60
2018-11-28T13:56:57.280Z,99116.53
2018-11-28T13:58:09.133Z,99114.64
2018-11-28T14:00:21.366Z,99109.12
2018-11-28T14:02:33.604Z,99118.92
2018-11-28T14:04:46.044Z,99112.39
2018-11-28T14:06:58.301Z,99116.64
2018-11-28T14:09:10.515Z,99112.78
2018-11-28T14:11:22.762Z,99108.47
2018-11-28T14:13:34.937Z,99114.97
2018-11-28T14:15:47.191Z,99120.98
2018-11-28T14:18:01.694Z,99113.17
2018-11-28T14:20:13.948Z,99114.39
2018-11-28T14:22:26.172Z,99114.76
2018-11-28T14:24:38.412Z,99117.28
2018-11-28T14:26:50.673Z,99118.25
2018-11-28T14:29:02.879Z,99117.02
2018-11-28T14:31:15.119Z,99112.58
2018-11-28T14:33:27.434Z,99113.41
2018-11-28T14:35:39.690Z,99108.34
2018-11-28T14:37:52.203Z,99111.02
2018-11-28T14:40:07.697Z,99117.86
2018-11-28T14:42:19.877Z,99119.98
2018-11-28T14:44:32.136Z,99123.80
2018-11-28T14:46:44.370Z,99119.22
2018-11-28T14:48:56.598Z,99119.22
2018-11-28T14:51:08.812Z,99119.38
2018-11-28T14:53:21.032Z,99118.14
2018-11-28T14:55:34.897Z,99122.45
2018-11-28T14:57:47.199Z,99125.81
2018-11-28T14:59:59.377Z,99128.08
2018-11-28T15:02:11.544Z,99128.97
2018-11-28T15:04:23.805Z,99126.71
2018-11-28T15:06:51.609Z,99129.29
2018-11-28T15:10:11.346Z,99124.28
2018-11-28T15:12:23.610Z,99124.36
2018-11-28T15:14:35.826Z,99128.83
2018-11-28T15:16:48.008Z,99120.85
2018-11-28T15:19:00.237Z,99121.62
2018-11-28T15:21:12.469Z,99122.98
2018-11-28T15:23:24.664Z,99124.64
2018-11-28T15:25:36.927Z,99134.13
2018-11-28T15:27:49.146Z,99133.80
2018-11-28T15:30:01.364Z,99126.19
2018-11-28T15:32:13.565Z,99127.55
2018-11-28T15:34:25.744Z,99124.27
2018-11-28T15:36:37.920Z,99124.34
2018-11-28T15:38:50.220Z,99125.23
2018-11-28T15:41:02.442Z,99117.30
2018-11-28T15:43:14.660Z,99117.81
2018-11-28T15:45:26.889Z,99122.20
2018-11-28T15:47:39.101Z,99127.34
2018-11-28T15:49:51.336Z,99122.38
2018-11-28T15:52:03.677Z,99124.63
2018-11-28T15:54:15.871Z,99122.96
2018-11-28T15:56:28.141Z,99123.47
2018-11-28T15:58:40.425Z,99121.07
2018-11-28T16:00:52.677Z,99121.96
2018-11-28T16:03:05.441Z,99119.45
2018-11-28T16:05:17.767Z,99120.47
2018-11-28T16:07:30.045Z,99119.08
2018-11-28T16:09:48.825Z,99117.55
2018-11-28T16:12:01.121Z,99123.70
2018-11-28T16:14:13.391Z,99131.43
2018-11-28T16:16:25.666Z,99128.15
2018-11-28T16:18:37.905Z,99126.63
2018-11-28T16:20:50.189Z,99128.45
2018-11-28T16:23:04.752Z,99132.66
2018-11-28T16:25:14.744Z,99133.53
2018-11-28T16:27:26.997Z,99134.02
2018-11-28T16:29:39.268Z,99131.67
2018-11-28T16:31:51.506Z,99130.94
2018-11-28T16:34:03.800Z,99133.69
2018-11-28T16:36:16.032Z,99136.37
2018-11-28T16:38:28.292Z,99143.28
2018-11-28T16:40:40.516Z,99142.08
2018-11-28T16:42:52.757Z,99150.73
2018-11-28T16:45:10.517Z,99149.84
2018-11-28T16:47:22.705Z,99148.99
2018-11-28T16:49:34.962Z,99139.20
2018-11-28T16:51:47.183Z,99143.06
2018-11-28T16:53:59.428Z,99155.95
2018-11-28T16:56:11.689Z,99156.92
2018-11-28T16:58:23.963Z,99161.22
2018-11-28T17:00:38.366Z,99152.28
2018-11-28T17:02:51.213Z,99148.96
2018-11-28T17:05:04.907Z,99146.80
2018-11-28T17:07:17.152Z,99146.35
2018-11-28T17:09:29.415Z,99149.53
2018-11-28T17:11:41.712Z,99149.09
2018-11-28T17:13:54.016Z,99147.27
2018-11-28T17:16:06.280Z,99142.63
2018-11-28T17:18:18.559Z,99140.63
2018-11-28T17:20:30.784Z,99132.13
2018-11-28T17:22:43.219Z,99127.56
2018-11-28T17:24:55.457Z,99125.52
2018-11-28T17:27:07.783Z,99128.09
2018-11-28T17:29:20.036Z,99131.62
2018-11-28T17:31:32.301Z,99129.48
2018-11-28T17:33:44.512Z,99139.84
2018-11-28T17:35:56.826Z,99138.19
2018-11-28T17:38:09.068Z,99141.75
2018-11-28T17:40:22.656Z,99137.50
2018-11-28T17:42:34.924Z,99141.31
2018-11-28T17:44:47.146Z,99136.58
2018-11-28T17:46:59.369Z,99136.69
2018-11-28T17:49:11.642Z,99142.63
2018-11-28T17:51:23.852Z,99145.13
2018-11-28T17:53:36.146Z,99144.72
2018-11-28T17:55:51.545Z,99147.28
2018-11-28T17:58:03.809Z,99151.64
2018-11-28T18:00:17.308Z,99150.44
2018-11-28T18:02:29.516Z,99154.25
2018-11-28T18:04:41.746Z,99159.81
2018-11-28T18:06:53.973Z,99166.23
2018-11-28T18:09:09.978Z,99167.91
2018-11-28T18:11:22.248Z,99170.11
2018-11-28T18:13:39.403Z,99170.19
2018-11-28T18:15:49.335Z,99173.11
2018-11-28T18:18:01.753Z,99174.88
2018-11-28T18:20:14.014Z,99180.34
2018-11-28T18:22:26.291Z,99175.54
2018-11-28T18:24:38.496Z,99180.30
2018-11-28T18:26:50.696Z,99182.94
2018-11-28T18:29:02.951Z,99179.19
2018-11-28T18:31:15.190Z,99185.73
2018-11-28T18:33:27.471Z,99183.10
2018-11-28T18:35:39.822Z,99182.67
2018-11-28T18:37:52.068Z,99184.73
2018-11-28T18:40:07.409Z,99191.61
2018-11-28T18:42:19.678Z,99189.11
2018-11-28T18:44:31.942Z,99195.05
2018-11-28T18:46:44.140Z,99194.14
2018-11-28T18:48:56.408Z,99193.70
2018-11-28T18:51:08.609Z,99183.55
2018-11-28T18:53:20.843Z,99187.42
2018-11-28T18:55:33.053Z,99184.05
2018-11-28T18:57:45.954Z,99179.32
2018-11-28T18:59:58.193Z,99170.78
2018-11-28T19:02:10.450Z,99172.10
2018-11-28T19:04:22.692Z,99169.16
2018-11-28T19:06:35.012Z,99170.51
2018-11-28T19:08:47.275Z,99165.38
2018-11-28T19:10:59.966Z,99178.11
2018-11-28T19:13:11.858Z,99173.86
2018-11-28T19:15:26.354Z,99175.17
2018-11-28T19:17:38.702Z,99182.89
2018-11-28T19:19:50.961Z,99179.45
2018-11-28T19:22:03.238Z,99177.73
2018-11-28T19:24:15.455Z,99178.08
2018-11-28T19:26:27.708Z,99177.57
2018-11-28T19:28:40.018Z,99184.86
2018-11-28T19:30:52.292Z,99187.83
2018-11-28T19:33:06.061Z,99191.67
2018-11-28T19:35:18.418Z,99181.89
2018-11-28T19:37:30.644Z,99180.67
2018-11-28T19:39:42.908Z,99175.51
2018-11-28T19:41:55.214Z,99180.33
2018-11-28T19:44:07.426Z,99182.86
2018-11-28T19:46:19.665Z,99182.02
2018-11-28T19:48:31.964Z,99180.33
2018-11-28T19:50:44.213Z,99178.23
2018-11-28T19:52:56.466Z,99173.16
2018-11-28T19:55:08.985Z,99175.81
2018-11-28T19:57:21.329Z,99169.50
2018-11-28T19:59:33.588Z,99172.47
2018-11-28T20:01:45.810Z,99176.23
2018-11-28T20:03:58.022Z,99177.95
2018-11-28T20:06:10.310Z,99186.89
2018-11-28T20:08:22.574Z,99174.89
2018-11-28T20:10:34.966Z,99176.92
2018-11-28T20:12:47.263Z,99183.39
2018-11-28T20:14:59.481Z,99185.11
2018-11-28T20:17:12.197Z,99182.95
2018-11-28T20:19:24.511Z,99188.86
2018-11-28T20:21:36.726Z,99191.02
2018-11-28T20:23:48.983Z,99186.27
2018-11-28T20:26:01.253Z,99196.98
2018-11-28T20:28:13.602Z,99202.12
2018-11-28T20:30:31.234Z,99198.67
2018-11-28T20:32:43.466Z,99198.65
2018-11-28T20:34:55.715Z,99194.77
2018-11-28T20:37:08.001Z,99203.02
2018-11-28T20:39:20.249Z,99194.89
2018-11-28T20:41:32.464Z,99194.08
2018-11-28T20:43:44.694Z,99195.30
2018-11-28T20:45:57.005Z,99192.73
2018-11-28T20:48:09.244Z,99192.30
2018-11-28T20:50:25.937Z,99192.77
2018-11-28T20:52:38.328Z,99189.70
2018-11-28T20:54:50.617Z,99183.67
2018-11-28T20:57:02.863Z,99182.86
2018-11-28T20:59:15.162Z,99181.95
2018-11-28T21:01:27.469Z,99184.02
2018-11-28T21:03:39.679Z,99178.08
2018-11-28T21:05:51.981Z,99186.14
2018-11-28T21:08:04.943Z,99192.95
2018-11-28T21:10:38.255Z,99201.96
2018-11-28T21:12:50.568Z,99202.84
2018-11-28T21:15:02.829Z,99201.52
2018-11-28T21:17:15.064Z,99200.68
2018-11-28T21:19:27.309Z,99193.45
2018-11-28T21:21:39.562Z,99187.48
2018-11-28T21:23:51.805Z,99178.52
2018-11-28T21:26:04.333Z,99172.51
2018-11-28T21:28:16.545Z,99171.20
2018-11-28T21:30:28.848Z,99166.09
2018-11-28T21:32:41.101Z,99161.31
2018-11-28T21:34:53.344Z,99155.33
2018-11-28T21:37:05.611Z,99157.39
2018-11-28T21:39:17.861Z,99153.44
2018-11-28T21:41:30.073Z,99140.17
2018-11-28T21:43:42.268Z,99148.31
2018-11-28T21:45:54.517Z,99152.80
2018-11-28T21:48:06.883Z,99148.15
2018-11-28T21:50:19.412Z,99160.50
2018-11-28T21:52:31.698Z,99155.67
2018-11-28T21:54:43.965Z,99150.61
2018-11-28T21:56:56.868Z,99158.38
2018-11-28T21:59:09.136Z,99160.87
2018-11-28T22:01:21.385Z,99165.59
2018-11-28T22:03:33.605Z,99151.45
2018-11-28T22:05:45.841Z,99148.75
2018-11-28T22:07:58.069Z,99142.74
2018-11-28T22:10:20.560Z,99137.13
2018-11-28T22:12:32.753Z,99126.84
2018-11-28T22:14:45.053Z,99120.53
2018-11-28T22:16:57.313Z,99124.78
2018-11-28T22:19:09.544Z,99122.14
2018-11-28T22:21:21.746Z,99128.19
2018-11-28T22:23:34.047Z,99132.41
2018-11-28T22:25:46.248Z,99134.13
2018-11-28T22:27:58.420Z,99139.00
2018-11-28T22:30:11.777Z,99140.58
2018-11-28T22:32:23.971Z,99137.91
2018-11-28T22:34:36.213Z,99137.42
2018-11-28T22:36:48.393Z,99136.54
2018-11-28T22:39:00.640Z,99132.66
2018-11-28T22:41:12.961Z,99133.02
2018-11-28T22:43:25.140Z,99133.06
2018-11-28T22:45:37.390Z,99130.56
2018-11-28T22:47:49.631Z,99123.75
2018-11-28T22:50:01.897Z,99121.08
2018-11-28T22:52:14.147Z,99121.98
2018-11-28T22:54:26.387Z,99117.66
2018-11-28T22:56:38.572Z,99122.35
2018-11-28T22:58:50.774Z,99113.77
2018-11-28T23:01:09.993Z,99101.83
2018-11-28T23:03:22.215Z,99098.74
2018-11-28T23:05:38.526Z,99097.94
2018-11-28T23:07:50.709Z,99101.70
2018-11-28T23:10:03.683Z,99103.75
2018-11-28T23:12:15.900Z,99096.84
2018-11-28T23:14:28.064Z,99103.34
2018-11-28T23:16:40.269Z,99105.48
2018-11-28T23:18:52.541Z,99103.02
2018-11-28T23:21:05.179Z,99098.25
2018-11-28T23:23:17.370Z,99091.35
2018-11-28T23:25:29.573Z,99087.07
2018-11-28T23:27:41.837Z,99079.41
2018-11-28T23:29:54.016Z,99073.84
2018-11-28T23:32:06.215Z,99068.70
2018-11-28T23:34:18.409Z,99068.31
2018-11-28T23:36:30.642Z,99065.21
2018-11-28T23:38:42.835Z,99057.50
2018-11-28T23:40:54.995Z,99051.45
2018-11-28T23:43:07.265Z,99051.45
2018-11-28T23:45:19.494Z,99054.45
2018-11-28T23:47:31.703Z,99064.77
2018-11-28T23:49:43.909Z,99062.55
2018-11-28T23:51:56.113Z,99065.08
2018-11-28T23:54:08.313Z,99061.63
2018-11-28T23:56:20.472Z,99063.31
2018-11-28T23:58:32.652Z,99062.33
